createdAt,value
2018-02-20T00:00:28.348Z,0
2018-02-20T00:01:29.094Z,0
2018-02-20T00:02:49.968Z,0
2018-02-20T00:03:50.795Z,0
2018-02-20T00:04:50.654Z,0
2018-02-20T00:05:50.337Z,0
2018-02-20T00:06:50.913Z,0
2018-02-20T00:07:50.539Z,0
2018-02-20T00:08:50.394Z,0
2018-02-20T00:09:51.227Z,0
2018-02-20T00:10:51.119Z,0
2018-02-20T00:11:50.796Z,0
2018-02-20T00:12:50.341Z,0
2018-02-20T00:13:51.155Z,0
2018-02-20T00:14:50.508Z,0
2018-02-20T00:15:49.992Z,0
2018-02-20T00:16:50.829Z,0
2018-02-20T00:17:50.727Z,0
2018-02-20T00:18:50.295Z,0
2018-02-20T00:19:51.616Z,0
2018-02-20T00:20:50.456Z,0
2018-02-20T00:21:50.324Z,0
2018-02-20T00:22:50.747Z,0
2018-02-20T00:23:50.427Z,0
2018-02-20T00:24:50.359Z,0
2018-02-20T00:25:50.833Z,0
2018-02-20T00:27:12.646Z,0
2018-02-20T00:28:12.652Z,0
2018-02-20T00:29:12.301Z,0
2018-02-20T00:30:12.241Z,0
2018-02-20T00:31:12.679Z,0
2018-02-20T00:32:33.422Z,0
2018-02-20T00:33:34.110Z,0
2018-02-20T00:34:33.647Z,0
2018-02-20T00:35:55.476Z,0
2018-02-20T00:36:56.408Z,0
2018-02-20T00:37:55.842Z,0
2018-02-20T00:38:56.173Z,0
2018-02-20T00:39:56.007Z,0
2018-02-20T00:40:56.329Z,0
2018-02-20T00:41:56.018Z,0
2018-02-20T00:43:17.949Z,0
2018-02-20T00:44:18.560Z,0
2018-02-20T00:45:18.191Z,0
2018-02-20T00:46:18.652Z,0
2018-02-20T00:47:18.304Z,0
2018-02-20T00:48:19.067Z,0
2018-02-20T00:49:18.604Z,0
2018-02-20T00:50:17.872Z,0
2018-02-20T00:51:18.629Z,0
2018-02-20T00:52:18.595Z,0
2018-02-20T00:53:18.113Z,0
2018-02-20T00:54:18.701Z,0
2018-02-20T00:55:18.251Z,0
2018-02-20T00:56:18.442Z,0
2018-02-20T00:57:17.852Z,0
2018-02-20T00:58:18.673Z,0
2018-02-20T00:59:18.518Z,0
2018-02-20T01:00:39.412Z,0
2018-02-20T01:01:39.927Z,0
2018-02-20T01:02:40.880Z,0
2018-02-20T01:03:40.800Z,0
2018-02-20T01:04:40.510Z,0
2018-02-20T01:05:40.189Z,0
2018-02-20T01:06:39.667Z,0
2018-02-20T01:07:40.423Z,0
2018-02-20T01:08:39.887Z,0
2018-02-20T01:09:40.614Z,0
2018-02-20T01:10:40.172Z,0
2018-02-20T01:11:40.001Z,0
2018-02-20T01:12:40.403Z,0
2018-02-20T01:13:40.312Z,0
2018-02-20T01:14:40.064Z,0
2018-02-20T01:15:39.536Z,0
2018-02-20T01:16:40.080Z,0
2018-02-20T01:17:39.637Z,0
2018-02-20T01:18:40.290Z,0
2018-02-20T01:19:39.778Z,0
2018-02-20T01:20:40.566Z,0
2018-02-20T01:21:40.272Z,0
2018-02-20T01:22:40.034Z,0
2018-02-20T01:23:39.896Z,0
2018-02-20T01:24:40.135Z,0
2018-02-20T01:25:39.415Z,0
2018-02-20T01:26:40.259Z,0
2018-02-20T01:27:40.185Z,0
2018-02-20T01:28:39.593Z,0
2018-02-20T01:29:40.382Z,0
2018-02-20T01:30:39.533Z,0
2018-02-20T01:31:40.163Z,0
2018-02-20T01:32:39.422Z,0
2018-02-20T01:33:40.197Z,0
2018-02-20T01:34:39.959Z,0
2018-02-20T01:36:00.849Z,0
2018-02-20T01:37:01.205Z,0
2018-02-20T01:38:01.842Z,0
2018-02-20T01:39:01.198Z,0
2018-02-20T01:40:01.881Z,0
2018-02-20T01:41:01.312Z,0
2018-02-20T01:42:00.810Z,0
2018-02-20T01:43:01.281Z,0
2018-02-20T01:44:01.311Z,0
2018-02-20T01:45:00.543Z,0
2018-02-20T01:46:22.859Z,0
2018-02-20T01:47:23.306Z,0
2018-02-20T01:48:24.251Z,0
2018-02-20T01:49:23.919Z,0
2018-02-20T01:50:23.358Z,0
2018-02-20T01:51:24.138Z,0
2018-02-20T01:52:23.490Z,0
2018-02-20T01:53:24.225Z,0
2018-02-20T01:54:46.147Z,0
2018-02-20T01:55:46.520Z,0
2018-02-20T01:56:46.130Z,0
2018-02-20T01:57:46.823Z,0
2018-02-20T01:59:07.578Z,0
2018-02-20T02:00:08.398Z,0
2018-02-20T02:01:08.057Z,0
2018-02-20T02:02:30.293Z,0
2018-02-20T02:03:30.930Z,0
2018-02-20T02:04:30.570Z,0
2018-02-20T02:05:30.878Z,0
2018-02-20T02:06:30.459Z,0
2018-02-20T02:07:31.105Z,0
2018-02-20T02:08:51.709Z,0
2018-02-20T02:09:52.211Z,0
2018-02-20T02:11:35.609Z,0
2018-02-20T02:12:36.571Z,0
2018-02-20T02:13:35.969Z,0
2018-02-20T02:14:35.887Z,0
2018-02-20T02:15:35.218Z,0
2018-02-20T02:16:36.006Z,0
2018-02-20T02:17:35.312Z,0
2018-02-20T02:18:36.063Z,0
2018-02-20T02:19:35.303Z,0
2018-02-20T02:20:35.684Z,0
2018-02-20T02:21:36.469Z,0
2018-02-20T02:22:35.895Z,0
2018-02-20T02:23:35.669Z,0
2018-02-20T02:24:36.441Z,0
2018-02-20T02:25:36.064Z,0
2018-02-20T02:26:35.687Z,0
2018-02-20T02:27:36.179Z,0
2018-02-20T02:28:35.696Z,0
2018-02-20T02:29:36.517Z,0
2018-02-20T02:30:36.355Z,0
2018-02-20T02:31:35.626Z,0
2018-02-20T02:32:36.173Z,0
2018-02-20T02:33:35.856Z,0
2018-02-20T02:34:35.573Z,0
2018-02-20T02:35:35.858Z,0
2018-02-20T02:36:35.308Z,0
2018-02-20T02:37:36.146Z,0
2018-02-20T02:38:35.938Z,0
2018-02-20T02:39:35.358Z,0
2018-02-20T02:40:36.287Z,0
2018-02-20T02:41:35.722Z,0
2018-02-20T02:42:36.668Z,0
2018-02-20T02:43:36.484Z,0
2018-02-20T02:44:36.283Z,0
2018-02-20T02:45:35.979Z,0
2018-02-20T02:46:35.507Z,0
2018-02-20T02:47:36.186Z,0
2018-02-20T02:48:35.722Z,0
2018-02-20T02:49:36.438Z,0
2018-02-20T02:50:35.937Z,0
2018-02-20T02:51:56.582Z,0
2018-02-20T02:52:57.454Z,0
2018-02-20T02:53:57.103Z,0
2018-02-20T02:54:56.402Z,0
2018-02-20T02:55:56.850Z,0
2018-02-20T02:56:57.605Z,0
2018-02-20T02:57:57.145Z,0
2018-02-20T02:58:56.487Z,0
2018-02-20T02:59:56.917Z,0
2018-02-20T03:00:57.312Z,0
2018-02-20T03:01:56.929Z,0
2018-02-20T03:02:57.644Z,0
2018-02-20T03:03:56.968Z,0
2018-02-20T03:04:56.258Z,0
2018-02-20T03:05:57.034Z,0
2018-02-20T03:06:56.495Z,0
2018-02-20T03:07:56.845Z,0
2018-02-20T03:08:56.380Z,0
2018-02-20T03:09:57.152Z,0
2018-02-20T03:10:56.709Z,0
2018-02-20T03:11:57.180Z,0
2018-02-20T03:12:57.124Z,0
2018-02-20T03:13:57.046Z,0
2018-02-20T03:14:56.605Z,0
2018-02-20T03:15:57.323Z,0
2018-02-20T03:16:56.530Z,0
2018-02-20T03:18:18.151Z,0
2018-02-20T03:19:18.879Z,0
2018-02-20T03:20:18.381Z,0
2018-02-20T03:21:18.865Z,0
2018-02-20T03:22:18.621Z,0
2018-02-20T03:23:18.884Z,0
2018-02-20T03:24:19.062Z,0
2018-02-20T03:25:18.860Z,0
2018-02-20T03:26:19.024Z,0
2018-02-20T03:27:18.678Z,0
2018-02-20T03:28:18.585Z,0
2018-02-20T03:29:19.747Z,0
2018-02-20T03:30:19.043Z,0
2018-02-20T03:31:18.664Z,0
2018-02-20T03:32:40.758Z,0
2018-02-20T03:33:41.058Z,0
2018-02-20T03:34:40.576Z,0
2018-02-20T03:35:40.903Z,0
2018-02-20T03:36:41.340Z,0
2018-02-20T03:37:41.052Z,0
2018-02-20T03:38:41.636Z,0
2018-02-20T03:39:41.725Z,0
2018-02-20T03:40:41.334Z,0
2018-02-20T03:42:01.708Z,0
2018-02-20T03:43:02.007Z,0
2018-02-20T03:44:02.353Z,0
2018-02-20T03:45:03.236Z,0
2018-02-20T03:46:02.894Z,0
2018-02-20T03:47:02.395Z,0
2018-02-20T03:48:02.635Z,0
2018-02-20T03:49:02.419Z,0
2018-02-20T03:50:03.008Z,0
2018-02-20T03:51:02.399Z,0
2018-02-20T03:52:02.122Z,0
2018-02-20T03:53:02.793Z,0
2018-02-20T03:54:02.562Z,0
2018-02-20T03:55:02.745Z,0
2018-02-20T03:56:02.428Z,0
2018-02-20T03:57:23.089Z,0
2018-02-20T03:58:23.895Z,0
2018-02-20T03:59:23.708Z,0
2018-02-20T04:00:23.451Z,0
2018-02-20T04:01:24.085Z,0
2018-02-20T04:02:23.598Z,0
2018-02-20T04:03:23.025Z,0
2018-02-20T04:04:23.700Z,0
2018-02-20T04:05:23.284Z,0
2018-02-20T04:06:23.999Z,0
2018-02-20T04:07:23.428Z,0
2018-02-20T04:08:23.736Z,0
2018-02-20T04:09:23.178Z,0
2018-02-20T04:11:06.306Z,0
2018-02-20T04:12:06.484Z,0
2018-02-20T04:13:06.807Z,0
2018-02-20T04:14:06.113Z,0
2018-02-20T04:15:06.544Z,0
2018-02-20T04:16:07.273Z,0
2018-02-20T04:17:07.217Z,0
2018-02-20T04:18:07.102Z,0
2018-02-20T04:19:06.554Z,0
2018-02-20T04:20:05.970Z,0
2018-02-20T04:21:06.631Z,0
2018-02-20T04:22:06.111Z,0
2018-02-20T04:23:06.757Z,0
2018-02-20T04:24:06.592Z,0
2018-02-20T04:25:06.961Z,0
2018-02-20T04:26:06.229Z,0
2018-02-20T04:27:06.937Z,0
2018-02-20T04:28:06.092Z,0
2018-02-20T04:29:06.354Z,0
2018-02-20T04:30:06.963Z,0
2018-02-20T04:31:06.279Z,0
2018-02-20T04:32:07.050Z,0
2018-02-20T04:33:06.686Z,0
2018-02-20T04:34:27.013Z,0
2018-02-20T04:35:27.596Z,0
2018-02-20T04:36:28.003Z,0
2018-02-20T04:37:27.891Z,0
2018-02-20T04:38:27.636Z,0
2018-02-20T04:39:28.253Z,0
2018-02-20T04:40:27.961Z,0
2018-02-20T04:41:27.267Z,0
2018-02-20T04:42:28.340Z,0
2018-02-20T04:43:28.009Z,0
2018-02-20T04:44:27.304Z,0
2018-02-20T04:45:27.932Z,0
2018-02-20T04:46:27.551Z,0
2018-02-20T04:47:49.587Z,0
2018-02-20T04:48:50.300Z,0
2018-02-20T04:49:50.503Z,0
2018-02-20T04:51:11.274Z,0
2018-02-20T04:52:11.872Z,0
2018-02-20T04:53:11.372Z,0
2018-02-20T04:54:11.520Z,0
2018-02-20T04:55:33.641Z,0
2018-02-20T04:56:34.438Z,0
2018-02-20T04:57:34.128Z,0
2018-02-20T04:58:54.967Z,0
2018-02-20T04:59:54.409Z,0
2018-02-20T05:00:55.358Z,0
2018-02-20T05:01:55.276Z,0
2018-02-20T05:02:55.106Z,0
2018-02-20T05:03:54.460Z,0
2018-02-20T05:05:16.387Z,0
2018-02-20T05:06:16.888Z,0
2018-02-20T05:07:16.565Z,0
2018-02-20T05:08:17.136Z,0
2018-02-20T05:09:17.324Z,0
2018-02-20T05:10:16.701Z,0
2018-02-20T05:11:17.430Z,0
2018-02-20T05:12:17.292Z,0
2018-02-20T05:13:16.981Z,0
2018-02-20T05:14:16.829Z,0
2018-02-20T05:15:16.385Z,0
2018-02-20T05:16:16.828Z,0
2018-02-20T05:17:17.412Z,0
2018-02-20T05:18:17.319Z,0
2018-02-20T05:19:16.692Z,0
2018-02-20T05:20:16.986Z,0
2018-02-20T05:21:16.871Z,0
2018-02-20T05:22:16.740Z,0
2018-02-20T05:23:17.512Z,0
2018-02-20T05:24:17.225Z,0
2018-02-20T05:25:16.511Z,0
2018-02-20T05:26:16.961Z,0
2018-02-20T05:27:16.299Z,0
2018-02-20T05:28:16.580Z,0
2018-02-20T05:29:38.630Z,0
2018-02-20T05:30:39.438Z,0
2018-02-20T05:31:39.304Z,0
2018-02-20T05:32:39.234Z,0
2018-02-20T05:33:39.038Z,0
2018-02-20T05:34:38.700Z,0
2018-02-20T05:35:38.944Z,0
2018-02-20T05:36:38.799Z,0
2018-02-20T05:37:38.588Z,0
2018-02-20T05:38:39.528Z,0
2018-02-20T05:39:39.048Z,0
2018-02-20T05:40:38.464Z,0
2018-02-20T05:41:39.289Z,0
2018-02-20T05:42:39.139Z,0
2018-02-20T05:43:38.431Z,0
2018-02-20T05:44:38.947Z,0
2018-02-20T05:45:38.555Z,0
2018-02-20T05:46:39.368Z,0
2018-02-20T05:47:39.026Z,0
2018-02-20T05:48:38.443Z,0
2018-02-20T05:49:39.138Z,0
2018-02-20T05:50:38.499Z,0
2018-02-20T05:52:00.842Z,0
2018-02-20T05:53:01.230Z,0
2018-02-20T05:54:00.749Z,0
2018-02-20T05:55:01.258Z,0
2018-02-20T05:56:00.542Z,0
2018-02-20T05:57:00.799Z,0
2018-02-20T05:58:01.383Z,0
2018-02-20T05:59:00.679Z,0
2018-02-20T06:00:01.286Z,0
2018-02-20T06:01:01.147Z,0
2018-02-20T06:02:00.476Z,0
2018-02-20T06:03:01.270Z,0
2018-02-20T06:04:00.641Z,0
2018-02-20T06:05:01.079Z,0
2018-02-20T06:06:02.062Z,0
2018-02-20T06:07:01.044Z,0
2018-02-20T06:08:00.816Z,0
2018-02-20T06:09:01.489Z,0
2018-02-20T06:10:00.967Z,0
2018-02-20T06:11:01.833Z,0
2018-02-20T06:12:01.186Z,0
2018-02-20T06:13:01.060Z,0
2018-02-20T06:14:01.381Z,0
2018-02-20T06:15:01.044Z,0
2018-02-20T06:16:01.773Z,0
2018-02-20T06:17:01.315Z,0
2018-02-20T06:18:01.016Z,0
2018-02-20T06:19:00.879Z,0
2018-02-20T06:20:01.751Z,0
2018-02-20T06:21:22.529Z,0
2018-02-20T06:22:23.028Z,0
2018-02-20T06:23:22.943Z,0
2018-02-20T06:24:23.353Z,1
2018-02-20T06:25:23.416Z,1
2018-02-20T06:26:22.896Z,1
2018-02-20T06:27:23.563Z,1
2018-02-20T06:28:23.486Z,1
2018-02-20T06:29:23.335Z,1
2018-02-20T06:30:23.269Z,2
2018-02-20T06:31:22.982Z,2
2018-02-20T06:32:23.731Z,2
2018-02-20T06:33:23.204Z,2
2018-02-20T06:34:22.690Z,2
2018-02-20T06:35:23.584Z,3
2018-02-20T06:36:23.079Z,3
2018-02-20T06:37:23.774Z,3
2018-02-20T06:38:23.187Z,3
2018-02-20T06:39:22.946Z,4
2018-02-20T06:40:23.502Z,4
2018-02-20T06:41:44.125Z,4
2018-02-20T06:43:49.183Z,5
2018-02-20T06:44:44.602Z,5
2018-02-20T06:46:27.566Z,6
2018-02-20T06:47:28.320Z,7
2018-02-20T06:48:27.706Z,7
2018-02-20T06:49:27.378Z,8
2018-02-20T06:50:28.710Z,9
2018-02-20T06:51:27.713Z,9
2018-02-20T06:52:28.526Z,10
2018-02-20T06:53:28.106Z,10
2018-02-20T06:54:49.708Z,11
2018-02-20T06:55:51.032Z,12
2018-02-20T06:56:49.385Z,13
2018-02-20T06:57:50.489Z,14
2018-02-20T06:58:49.884Z,14
2018-02-20T06:59:49.740Z,15
2018-02-20T07:00:49.493Z,16
2018-02-20T07:01:50.072Z,16
2018-02-20T07:02:49.497Z,17
2018-02-20T07:03:50.124Z,17
2018-02-20T07:04:49.708Z,18
2018-02-20T07:05:50.099Z,18
2018-02-20T07:06:50.154Z,19
2018-02-20T07:08:11.434Z,20
2018-02-20T07:09:12.299Z,20
2018-02-20T07:10:11.747Z,21
2018-02-20T07:11:11.535Z,21
2018-02-20T07:12:06.935Z,22
2018-02-20T07:13:06.997Z,22
2018-02-20T07:14:07.027Z,23
2018-02-20T07:15:07.102Z,23
2018-02-20T07:16:06.292Z,23
2018-02-20T07:17:07.382Z,24
2018-02-20T07:18:07.166Z,25
2018-02-20T07:19:06.940Z,26
2018-02-20T07:20:06.600Z,27
2018-02-20T07:21:28.456Z,28
2018-02-20T07:22:50.546Z,29
2018-02-20T07:23:50.972Z,29
2018-02-20T07:24:51.525Z,30
2018-02-20T07:25:51.224Z,30
2018-02-20T07:26:50.676Z,31
2018-02-20T07:27:51.171Z,31
2018-02-20T07:28:51.002Z,34
2018-02-20T07:30:12.648Z,38
2018-02-20T07:31:13.246Z,39
2018-02-20T07:32:34.640Z,42
2018-02-20T07:33:35.541Z,43
2018-02-20T07:34:35.171Z,43
2018-02-20T07:35:35.206Z,44
2018-02-20T07:36:34.979Z,45
2018-02-20T07:37:34.840Z,46
2018-02-20T07:38:34.763Z,48
2018-02-20T07:39:35.776Z,48
2018-02-20T07:40:35.476Z,48
2018-02-20T07:41:35.053Z,48
2018-02-20T07:42:34.680Z,49
2018-02-20T07:43:35.513Z,48
2018-02-20T07:44:35.557Z,49
2018-02-20T07:45:34.977Z,49
2018-02-20T07:46:34.617Z,52
2018-02-20T07:47:35.052Z,51
2018-02-20T07:48:56.637Z,51
2018-02-20T07:49:57.435Z,51
2018-02-20T07:50:57.014Z,50
2018-02-20T07:51:56.450Z,48
2018-02-20T07:52:57.257Z,47
2018-02-20T07:53:57.212Z,47
2018-02-20T07:54:57.580Z,47
2018-02-20T07:55:56.937Z,47
2018-02-20T07:56:56.316Z,47
2018-02-20T07:57:56.748Z,49
2018-02-20T07:58:57.672Z,51
2018-02-20T07:59:57.229Z,51
2018-02-20T08:00:57.578Z,50
2018-02-20T08:01:57.546Z,48
2018-02-20T08:02:57.409Z,48
2018-02-20T08:03:57.348Z,48
2018-02-20T08:05:18.545Z,48
2018-02-20T08:06:19.411Z,48
2018-02-20T08:07:19.154Z,48
2018-02-20T08:08:18.899Z,48
2018-02-20T08:09:40.733Z,49
2018-02-20T08:10:41.229Z,50
2018-02-20T08:11:41.015Z,50
2018-02-20T08:12:40.941Z,50
2018-02-20T08:13:41.001Z,51
2018-02-20T08:14:40.722Z,51
2018-02-20T08:15:41.610Z,51
2018-02-20T08:16:41.279Z,53
2018-02-20T08:17:41.042Z,52
2018-02-20T08:18:41.093Z,53
2018-02-20T08:20:01.817Z,52
2018-02-20T08:21:02.756Z,53
2018-02-20T08:22:02.565Z,53
2018-02-20T08:23:23.740Z,53
2018-02-20T08:24:24.804Z,53
2018-02-20T08:25:24.679Z,54
2018-02-20T08:26:24.686Z,54
2018-02-20T08:27:24.279Z,55
2018-02-20T08:28:24.770Z,55
2018-02-20T08:29:24.242Z,55
2018-02-20T08:30:23.785Z,56
2018-02-20T08:31:24.117Z,57
2018-02-20T08:32:45.926Z,59
2018-02-20T08:33:46.572Z,61
2018-02-20T08:34:46.781Z,62
2018-02-20T08:35:46.748Z,60
2018-02-20T08:36:47.737Z,60
2018-02-20T08:37:46.475Z,61
2018-02-20T08:38:46.264Z,62
2018-02-20T08:39:47.079Z,62
2018-02-20T08:40:46.724Z,61
2018-02-20T08:41:47.133Z,62
2018-02-20T08:42:46.652Z,66
2018-02-20T08:43:45.930Z,66
2018-02-20T08:45:35.452Z,65
2018-02-20T08:46:35.294Z,66
2018-02-20T08:47:35.476Z,68
2018-02-20T08:48:35.392Z,74
2018-02-20T08:49:35.407Z,80
2018-02-20T08:50:35.839Z,78
2018-02-20T08:51:36.021Z,73
2018-02-20T08:52:35.925Z,69
2018-02-20T08:53:57.177Z,69
2018-02-20T08:54:57.867Z,69
2018-02-20T08:55:57.591Z,70
2018-02-20T08:56:57.392Z,70
2018-02-20T08:57:57.590Z,70
2018-02-20T08:58:57.409Z,71
2018-02-20T09:00:18.702Z,72
2018-02-20T09:01:19.333Z,72
2018-02-20T09:02:19.203Z,75
2018-02-20T09:03:18.678Z,81
2018-02-20T09:04:19.527Z,89
2018-02-20T09:05:19.598Z,101
2018-02-20T09:06:19.587Z,111
2018-02-20T09:07:22.572Z,124
2018-02-20T09:08:21.339Z,139
2018-02-20T09:09:21.501Z,141
2018-02-20T09:10:19.021Z,144
2018-02-20T09:11:18.519Z,156
2018-02-20T09:12:19.594Z,163
2018-02-20T09:13:19.585Z,169
2018-02-20T09:14:19.032Z,231
2018-02-20T09:15:18.963Z,240
2018-02-20T09:16:18.963Z,243
2018-02-20T09:17:18.888Z,244
2018-02-20T09:18:18.493Z,249
2018-02-20T09:19:19.226Z,260
2018-02-20T09:20:18.870Z,267
2018-02-20T09:22:01.779Z,281
2018-02-20T09:23:02.547Z,289
2018-02-20T09:24:02.511Z,294
2018-02-20T09:25:02.304Z,272
2018-02-20T09:26:01.960Z,240
2018-02-20T09:27:02.733Z,213
2018-02-20T09:28:05.336Z,198
2018-02-20T09:29:03.236Z,204
2018-02-20T09:30:01.817Z,211
2018-02-20T09:31:05.699Z,207
2018-02-20T09:32:02.559Z,217
2018-02-20T09:33:02.491Z,219
2018-02-20T09:34:02.406Z,236
2018-02-20T09:35:02.194Z,242
2018-02-20T09:36:03.236Z,234
2018-02-20T09:37:03.104Z,228
2018-02-20T09:38:03.083Z,218
2018-02-20T09:39:07.325Z,220
2018-02-20T09:40:02.028Z,208
2018-02-20T09:41:02.928Z,200
2018-02-20T09:42:46.902Z,218
2018-02-20T09:43:47.974Z,246
2018-02-20T09:44:47.882Z,236
2018-02-20T09:45:47.769Z,221
2018-02-20T09:46:47.697Z,221
2018-02-20T09:47:47.188Z,218
2018-02-20T09:48:46.967Z,220
2018-02-20T09:50:07.839Z,222
2018-02-20T09:51:08.365Z,224
2018-02-20T09:52:29.364Z,228
2018-02-20T09:53:29.858Z,231
2018-02-20T09:54:29.792Z,238
2018-02-20T09:55:29.601Z,248
2018-02-20T09:56:30.447Z,262
2018-02-20T09:57:30.249Z,317
2018-02-20T09:58:29.855Z,431
2018-02-20T09:59:29.899Z,322
2018-02-20T10:00:29.544Z,300
2018-02-20T10:01:30.249Z,296
2018-02-20T10:02:30.198Z,263
2018-02-20T10:03:29.800Z,294
2018-02-20T10:04:29.835Z,293
2018-02-20T10:05:30.319Z,299
2018-02-20T10:06:29.956Z,296
2018-02-20T10:07:29.830Z,298
2018-02-20T10:08:29.445Z,302
2018-02-20T10:09:30.068Z,305
2018-02-20T10:12:01.641Z,308
2018-02-20T10:13:03.620Z,316
2018-02-20T10:14:01.443Z,315
2018-02-20T10:15:01.397Z,313
2018-02-20T10:16:01.318Z,309
2018-02-20T10:17:23.079Z,309
2018-02-20T10:18:46.777Z,300
2018-02-20T10:20:29.809Z,305
2018-02-20T10:21:30.884Z,302
2018-02-20T10:22:30.813Z,307
2018-02-20T10:23:30.658Z,312
2018-02-20T10:24:52.998Z,311
2018-02-20T10:25:53.388Z,312
2018-02-20T10:26:53.033Z,323
2018-02-20T10:27:52.902Z,327
2018-02-20T10:28:53.681Z,327
2018-02-20T10:29:53.653Z,328
2018-02-20T10:30:53.072Z,325
2018-02-20T10:31:52.893Z,329
2018-02-20T10:32:53.425Z,329
2018-02-20T10:33:52.845Z,326
2018-02-20T10:34:53.880Z,331
2018-02-20T10:35:52.816Z,332
2018-02-20T10:36:53.423Z,338
2018-02-20T10:37:53.610Z,339
2018-02-20T10:39:15.062Z,336
2018-02-20T10:40:14.997Z,326
2018-02-20T10:41:15.878Z,312
2018-02-20T10:42:15.816Z,291
2018-02-20T10:43:15.718Z,295
2018-02-20T10:44:15.206Z,319
2018-02-20T10:45:37.878Z,337
2018-02-20T10:46:36.882Z,329
2018-02-20T10:47:58.878Z,333
2018-02-20T10:48:59.161Z,345
2018-02-20T10:49:59.656Z,334
2018-02-20T10:50:58.338Z,330
2018-02-20T10:51:57.947Z,341
2018-02-20T10:52:58.849Z,353
2018-02-20T10:53:58.902Z,351
2018-02-20T10:54:58.875Z,346
2018-02-20T10:55:58.261Z,342
2018-02-20T10:56:58.717Z,340
2018-02-20T10:57:58.592Z,343
2018-02-20T10:58:58.355Z,342
2018-02-20T11:00:19.373Z,349
2018-02-20T11:01:20.168Z,349
2018-02-20T11:02:19.796Z,362
2018-02-20T11:03:42.441Z,360
2018-02-20T11:04:43.397Z,350
2018-02-20T11:06:25.834Z,348
2018-02-20T11:07:26.298Z,356
2018-02-20T11:08:26.325Z,355
2018-02-20T11:09:26.238Z,363
2018-02-20T11:10:25.874Z,355
2018-02-20T11:11:26.368Z,354
2018-02-20T11:12:25.964Z,353
2018-02-20T11:13:27.013Z,346
2018-02-20T11:14:27.039Z,352
2018-02-20T11:15:27.122Z,355
2018-02-20T11:16:26.571Z,367
2018-02-20T11:17:26.568Z,368
2018-02-20T11:18:26.108Z,368
2018-02-20T11:19:27.102Z,368
2018-02-20T11:20:27.039Z,359
2018-02-20T11:21:26.657Z,344
2018-02-20T11:22:26.301Z,340
2018-02-20T11:23:26.751Z,353
2018-02-20T11:24:26.632Z,363
2018-02-20T11:25:26.966Z,349
2018-02-20T11:26:27.073Z,348
2018-02-20T11:27:48.756Z,365
2018-02-20T11:28:49.313Z,353
2018-02-20T11:29:50.129Z,336
2018-02-20T11:30:48.638Z,360
2018-02-20T11:31:49.755Z,351
2018-02-20T11:32:48.416Z,354
2018-02-20T11:33:48.829Z,360
2018-02-20T11:34:48.941Z,350
2018-02-20T11:35:48.487Z,357
2018-02-20T11:36:48.918Z,368
2018-02-20T11:37:48.645Z,373
2018-02-20T11:38:49.229Z,370
2018-02-20T11:39:48.815Z,369
2018-02-20T11:40:48.693Z,364
2018-02-20T11:41:49.217Z,384
2018-02-20T11:42:48.890Z,363
2018-02-20T11:43:48.966Z,362
2018-02-20T11:44:48.659Z,366
2018-02-20T11:45:49.709Z,372
2018-02-20T11:46:48.874Z,375
2018-02-20T11:47:48.976Z,388
2018-02-20T11:48:49.077Z,388
2018-02-20T11:49:48.998Z,392
2018-02-20T11:50:49.606Z,388
2018-02-20T11:51:49.465Z,391
2018-02-20T11:52:49.198Z,394
2018-02-20T11:53:49.183Z,400
2018-02-20T11:54:48.841Z,382
2018-02-20T11:55:48.588Z,393
2018-02-20T11:56:49.712Z,388
2018-02-20T11:57:49.732Z,382
2018-02-20T11:58:49.618Z,386
2018-02-20T11:59:49.354Z,380
2018-02-20T12:00:49.586Z,382
2018-02-20T12:01:49.699Z,381
2018-02-20T12:02:48.774Z,377
2018-02-20T12:03:49.785Z,373
2018-02-20T12:05:11.246Z,351
2018-02-20T12:07:37.850Z,353
2018-02-20T12:08:38.264Z,370
2018-02-20T12:09:38.417Z,379
2018-02-20T12:10:38.274Z,362
2018-02-20T12:11:37.885Z,365
2018-02-20T12:12:38.742Z,353
2018-02-20T12:13:38.476Z,354
2018-02-20T12:14:38.316Z,368
2018-02-20T12:15:38.180Z,368
2018-02-20T12:16:37.779Z,368
2018-02-20T12:17:38.586Z,376
2018-02-20T12:18:38.125Z,371
2018-02-20T12:20:42.486Z,371
2018-02-20T12:21:42.984Z,367
2018-02-20T12:22:42.797Z,374
2018-02-20T12:23:43.816Z,373
2018-02-20T12:24:43.375Z,365
2018-02-20T12:25:43.307Z,362
2018-02-20T12:26:42.739Z,362
2018-02-20T12:27:43.301Z,368
2018-02-20T12:28:42.929Z,366
2018-02-20T12:30:04.939Z,375
2018-02-20T12:31:26.551Z,379
2018-02-20T12:32:27.499Z,400
2018-02-20T12:33:27.431Z,394
2018-02-20T12:34:26.223Z,376
2018-02-20T12:35:49.448Z,387
2018-02-20T12:36:50.363Z,403
2018-02-20T12:37:49.854Z,398
2018-02-20T12:39:11.652Z,409
2018-02-20T12:40:12.522Z,396
2018-02-20T12:41:12.071Z,379
2018-02-20T12:42:55.223Z,379
2018-02-20T12:43:56.234Z,367
2018-02-20T12:45:18.132Z,367
2018-02-20T12:46:17.936Z,350
2018-02-20T12:47:19.018Z,346
2018-02-20T12:48:40.083Z,335
2018-02-20T12:49:41.009Z,343
2018-02-20T12:50:40.457Z,356
2018-02-20T12:51:40.846Z,354
2018-02-20T12:52:40.620Z,347
2018-02-20T12:53:40.763Z,330
2018-02-20T12:54:40.457Z,324
2018-02-20T12:55:40.040Z,357
2018-02-20T12:56:40.696Z,349
2018-02-20T12:57:40.754Z,333
2018-02-20T12:58:40.359Z,324
2018-02-20T12:59:41.237Z,312
2018-02-20T13:00:40.751Z,303
2018-02-20T13:01:40.562Z,329
2018-02-20T13:02:40.474Z,323
2018-02-20T13:03:40.352Z,330
2018-02-20T13:04:39.976Z,331
2018-02-20T13:05:41.916Z,318
2018-02-20T13:06:41.405Z,312
2018-02-20T13:08:01.630Z,308
2018-02-20T13:09:24.051Z,309
2018-02-20T13:10:23.708Z,312
2018-02-20T13:11:24.075Z,307
2018-02-20T13:12:24.536Z,312
2018-02-20T13:13:24.163Z,312
2018-02-20T13:14:25.015Z,317
2018-02-20T13:15:25.454Z,319
2018-02-20T13:16:24.416Z,316
2018-02-20T13:17:24.370Z,309
2018-02-20T13:18:24.180Z,315
2018-02-20T13:19:24.896Z,311
2018-02-20T13:20:47.267Z,302
2018-02-20T13:21:47.241Z,286
2018-02-20T13:22:47.626Z,300
2018-02-20T13:23:46.527Z,291
2018-02-20T13:24:46.662Z,286
2018-02-20T13:25:46.438Z,301
2018-02-20T13:26:46.380Z,300
2018-02-20T13:27:47.314Z,299
2018-02-20T13:28:47.056Z,303
2018-02-20T13:29:46.958Z,299
2018-02-20T13:30:46.724Z,303
2018-02-20T13:31:46.696Z,302
2018-02-20T13:32:46.789Z,291
2018-02-20T13:33:46.447Z,292
2018-02-20T13:34:46.172Z,279
2018-02-20T13:35:46.750Z,280
2018-02-20T13:36:46.714Z,275
2018-02-20T13:37:46.650Z,279
2018-02-20T13:38:46.591Z,282
2018-02-20T13:39:46.526Z,283
2018-02-20T13:40:46.128Z,275
2018-02-20T13:41:47.076Z,274
2018-02-20T13:42:46.957Z,275
2018-02-20T13:43:46.871Z,267
2018-02-20T13:44:46.912Z,265
2018-02-20T13:45:46.468Z,257
2018-02-20T13:46:47.005Z,261
2018-02-20T13:47:46.843Z,259
2018-02-20T13:48:46.448Z,264
2018-02-20T13:49:46.293Z,261
2018-02-20T13:50:47.028Z,251
2018-02-20T13:51:46.545Z,259
2018-02-20T13:52:47.349Z,252
2018-02-20T13:53:47.171Z,253
2018-02-20T13:54:46.650Z,242
2018-02-20T13:55:47.361Z,235
2018-02-20T13:56:47.180Z,231
2018-02-20T13:57:47.159Z,234
2018-02-20T13:58:47.303Z,231
2018-02-20T13:59:47.416Z,225
2018-02-20T14:00:47.125Z,224
2018-02-20T14:01:46.702Z,227
2018-02-20T14:02:46.660Z,230
2018-02-20T14:03:46.423Z,228
2018-02-20T14:04:47.800Z,220
2018-02-20T14:05:46.672Z,207
2018-02-20T14:06:46.695Z,201
2018-02-20T14:07:46.516Z,203
2018-02-20T14:08:46.688Z,210
2018-02-20T14:09:46.777Z,213
2018-02-20T14:10:46.365Z,202
2018-02-20T14:11:46.494Z,213
2018-02-20T14:12:47.133Z,209
2018-02-20T14:13:47.180Z,209
2018-02-20T14:14:47.006Z,213
2018-02-20T14:15:46.956Z,212
2018-02-20T14:16:47.026Z,212
2018-02-20T14:17:46.745Z,210
2018-02-20T14:18:47.151Z,207
2018-02-20T14:19:46.695Z,208
2018-02-20T14:20:47.003Z,191
2018-02-20T14:22:08.267Z,113
2018-02-20T14:23:09.349Z,194
2018-02-20T14:24:09.611Z,189
2018-02-20T14:25:09.081Z,181
2018-02-20T14:26:08.698Z,157
2018-02-20T14:27:09.603Z,140
2018-02-20T14:28:09.212Z,165
2018-02-20T14:29:30.136Z,110
2018-02-20T14:30:30.879Z,113
2018-02-20T14:31:30.963Z,106
2018-02-20T14:32:30.455Z,107
2018-02-20T14:33:31.069Z,108
2018-02-20T14:34:30.802Z,111
2018-02-20T14:35:52.332Z,107
2018-02-20T14:36:52.513Z,106
2018-02-20T14:37:52.104Z,100
2018-02-20T14:38:52.995Z,93
2018-02-20T14:39:52.750Z,84
2018-02-20T14:40:52.162Z,81
2018-02-20T14:41:53.123Z,88
2018-02-20T14:42:53.073Z,96
2018-02-20T14:43:52.963Z,103
2018-02-20T14:44:52.856Z,105
2018-02-20T14:45:52.815Z,103
2018-02-20T14:47:14.526Z,98
2018-02-20T14:48:15.416Z,95
2018-02-20T14:49:37.422Z,83
2018-02-20T14:50:36.959Z,80
2018-02-20T14:51:37.372Z,79
2018-02-20T14:52:36.787Z,76
2018-02-20T14:53:59.715Z,70
2018-02-20T14:54:59.457Z,68